Khudzhand, Tajikistan
Current Conditions -  °F | °C
As of 1:00 PM on Monday 26 Jan 2015 (Local Time) from UTDL Reporting Station
Broken Clouds Broken Clouds  
Wind Chill: 16°   Ceiling: 8000
Heat Index: 27°   Visibility: 6mi
Dew Point: 19°   Wind: 11mph
Humidity: 74%   Direction: 250°WSW
Pressure: 30.5"   Gusts: NA
Location:  40.29°N, 69.63°E
Report Text: UTDL 260800Z 25005MPS 9000 SCT013 BKN080 M03/M07 Q1033 NOSIGRMK QFE736/0982 88CLRD70
Loading
Personal Weather Stations






























Interactive Weather Map New forecast layout! Learn more

10-Day Weather Forecast

Advertisements
Track Severe Weather on mobile